sensor_id;sensor_type;location;lat;lon;timestamp;pressure;altitude;pressure_sealevel;temperature;humidity
71057;BME280;58380;48.312;9.246;2023-12-29T08:50:41;93623.34;;;4.18;100.00
71057;BME280;58380;48.312;9.246;2023-12-29T08:53:43;93620.16;;;4.35;100.00
71057;BME280;58380;48.312;9.246;2023-12-29T08:56:43;93622.94;;;4.51;100.00
71057;BME280;58380;48.312;9.246;2023-12-29T08:59:43;93606.53;;;4.63;100.00
71057;BME280;58380;48.312;9.246;2023-12-29T09:02:44;93597.31;;;4.60;100.00
71057;BME280;58380;48.312;9.246;2023-12-29T09:05:46;93625.16;;;4.85;100.00
71057;BME280;58380;48.312;9.246;2023-12-29T09:08:47;93616.97;;;4.93;100.00
71057;BME280;58380;48.312;9.246;2023-12-29T09:11:47;93613.81;;;5.03;100.00
71057;BME280;58380;48.312;9.246;2023-12-29T09:14:48;93621.47;;;5.04;100.00
71057;BME280;58380;48.312;9.246;2023-12-29T09:17:48;93620.69;;;5.15;100.00
71057;BME280;58380;48.312;9.246;2023-12-29T09:20:49;93625.59;;;5.24;100.00
71057;BME280;58380;48.312;9.246;2023-12-29T09:23:49;93620.16;;;5.37;100.00
71057;BME280;58380;48.312;9.246;2023-12-29T09:26:50;93631.31;;;5.44;100.00
71057;BME280;58380;48.312;9.246;2023-12-29T09:29:52;93634.06;;;5.49;100.00
71057;BME280;58380;48.312;9.246;2023-12-29T09:32:52;93622.09;;;5.53;100.00
71057;BME280;58380;48.312;9.246;2023-12-29T09:35:53;93612.97;;;5.44;100.00
71057;BME280;58380;48.312;9.246;2023-12-29T09:38:53;93625.19;;;5.50;100.00
71057;BME280;58380;48.312;9.246;2023-12-29T09:41:57;93623.91;;;5.41;100.00
71057;BME280;58380;48.312;9.246;2023-12-29T09:45:02;93623.34;;;5.39;100.00
71057;BME280;58380;48.312;9.246;2023-12-29T09:48:07;93637.00;;;5.41;100.00
71057;BME280;58380;48.312;9.246;2023-12-29T09:51:10;93623.66;;;5.31;100.00
71057;BME280;58380;48.312;9.246;2023-12-29T09:54:11;93631.06;;;5.34;100.00
71057;BME280;58380;48.312;9.246;2023-12-29T09:57:13;93626.78;;;5.39;100.00
71057;BME280;58380;48.312;9.246;2023-12-29T10:00:15;93641.66;;;5.39;100.00
71057;BME280;58380;48.312;9.246;2023-12-29T10:03:17;93640.88;;;5.50;100.00
71057;BME280;58380;48.312;9.246;2023-12-29T10:06:20;93642.41;;;5.70;100.00
71057;BME280;58380;48.312;9.246;2023-12-29T10:09:25;93613.03;;;5.79;100.00
71057;BME280;58380;48.312;9.246;2023-12-29T10:12:27;93627.72;;;6.16;100.00
71057;BME280;58380;48.312;9.246;2023-12-29T10:15:41;93640.44;;;6.24;100.00
71057;BME280;58380;48.312;9.246;2023-12-29T10:19:23;93633.38;;;6.36;100.00
71057;BME280;58380;48.312;9.246;2023-12-29T10:22:44;93626.94;;;6.56;100.00
71057;BME280;58380;48.312;9.246;2023-12-29T10:25:51;93610.69;;;6.70;100.00
71057;BME280;58380;48.312;9.246;2023-12-29T10:28:52;93603.34;;;6.84;100.00
71057;BME280;58380;48.312;9.246;2023-12-29T10:31:53;93596.47;;;6.95;100.00
71057;BME280;58380;48.312;9.246;2023-12-29T10:35:07;93610.31;;;7.07;100.00
71057;BME280;58380;48.312;9.246;2023-12-29T10:38:10;93597.91;;;7.03;100.00
71057;BME280;58380;48.312;9.246;2023-12-29T10:41:16;93598.59;;;6.98;100.00
71057;BME280;58380;48.312;9.246;2023-12-29T10:44:18;93587.94;;;6.88;100.00
71057;BME280;58380;48.312;9.246;2023-12-29T10:47:18;93587.44;;;6.91;100.00
71057;BME280;58380;48.312;9.246;2023-12-29T10:50:19;93592.56;;;6.98;100.00
71057;BME280;58380;48.312;9.246;2023-12-29T10:53:19;93581.75;;;6.94;100.00
71057;BME280;58380;48.312;9.246;2023-12-29T10:56:20;93584.19;;;6.84;100.00
71057;BME280;58380;48.312;9.246;2023-12-29T10:59:20;93585.34;;;6.76;100.00
71057;BME280;58380;48.312;9.246;2023-12-29T11:02:22;93583.91;;;6.68;100.00
71057;BME280;58380;48.312;9.246;2023-12-29T11:05:25;93572.91;;;6.55;100.00
71057;BME280;58380;48.312;9.246;2023-12-29T11:08:26;93574.66;;;6.49;100.00
71057;BME280;58380;48.312;9.246;2023-12-29T11:11:26;93567.03;;;6.36;100.00
71057;BME280;58380;48.312;9.246;2023-12-29T11:14:27;93578.56;;;6.35;100.00
71057;BME280;58380;48.312;9.246;2023-12-29T11:17:30;93581.75;;;6.37;100.00
71057;BME280;58380;48.312;9.246;2023-12-29T11:20:34;93570.50;;;6.24;100.00
71057;BME280;58380;48.312;9.246;2023-12-29T11:23:35;93570.94;;;6.21;100.00
71057;BME280;58380;48.312;9.246;2023-12-29T11:26:36;93572.28;;;6.24;100.00
71057;BME280;58380;48.312;9.246;2023-12-29T11:29:40;93566.06;;;6.13;100.00
71057;BME280;58380;48.312;9.246;2023-12-29T11:32:49;93561.88;;;6.12;100.00
71057;BME280;58380;48.312;9.246;2023-12-29T11:35:57;93580.69;;;6.09;100.00
71057;BME280;58380;48.312;9.246;2023-12-29T11:42:23;93566.66;;;6.03;100.00
71057;BME280;58380;48.312;9.246;2023-12-29T11:45:33;93557.78;;;6.04;100.00
71057;BME280;58380;48.312;9.246;2023-12-29T11:48:57;93566.75;;;6.09;100.00
71057;BME280;58380;48.312;9.246;2023-12-29T11:51:58;93557.31;;;6.08;100.00
71057;BME280;58380;48.312;9.246;2023-12-29T11:55:12;93562.88;;;6.11;100.00
71057;BME280;58380;48.312;9.246;2023-12-29T11:58:25;93543.16;;;6.09;100.00
71057;BME280;58380;48.312;9.246;2023-12-29T12:01:34;93543.53;;;6.12;100.00
71057;BME280;58380;48.312;9.246;2023-12-29T12:04:45;93540.56;;;6.09;100.00
71057;BME280;58380;48.312;9.246;2023-12-29T12:10:46;93545.88;;;6.25;100.00
71057;BME280;58380;48.312;9.246;2023-12-29T12:13:46;93526.06;;;6.18;100.00
71057;BME280;58380;48.312;9.246;2023-12-29T12:16:49;93534.38;;;6.26;100.00
71057;BME280;58380;48.312;9.246;2023-12-29T12:19:50;93528.09;;;6.28;100.00
71057;BME280;58380;48.312;9.246;2023-12-29T12:23:02;93526.25;;;6.28;100.00
71057;BME280;58380;48.312;9.246;2023-12-29T12:26:11;93525.00;;;6.31;100.00
71057;BME280;58380;48.312;9.246;2023-12-29T12:29:13;93520.69;;;6.24;100.00
71057;BME280;58380;48.312;9.246;2023-12-29T12:32:16;93520.69;;;6.24;100.00
71057;BME280;58380;48.312;9.246;2023-12-29T12:35:16;93513.81;;;6.35;100.00
71057;BME280;58380;48.312;9.246;2023-12-29T12:38:17;93520.84;;;6.46;100.00
71057;BME280;58380;48.312;9.246;2023-12-29T12:41:22;93525.38;;;6.51;100.00
71057;BME280;58380;48.312;9.246;2023-12-29T12:44:29;93521.72;;;6.52;100.00
71057;BME280;58380;48.312;9.246;2023-12-29T12:47:37;93511.81;;;6.54;100.00
71057;BME280;58380;48.312;9.246;2023-12-29T12:50:45;93514.66;;;6.53;100.00
71057;BME280;58380;48.312;9.246;2023-12-29T12:53:46;93498.75;;;6.42;100.00
71057;BME280;58380;48.312;9.246;2023-12-29T12:56:47;93503.84;;;6.49;100.00
71057;BME280;58380;48.312;9.246;2023-12-29T12:59:50;93522.69;;;6.63;100.00
71057;BME280;58380;48.312;9.246;2023-12-29T13:02:51;93509.28;;;6.59;100.00
71057;BME280;58380;48.312;9.246;2023-12-29T13:05:52;93510.53;;;6.57;100.00
71057;BME280;58380;48.312;9.246;2023-12-29T13:08:54;93508.00;;;6.62;100.00
71057;BME280;58380;48.312;9.246;2023-12-29T13:12:13;93502.75;;;6.62;100.00
71057;BME280;58380;48.312;9.246;2023-12-29T13:15:15;93522.56;;;6.69;100.00
71057;BME280;58380;48.312;9.246;2023-12-29T13:18:16;93501.41;;;6.59;100.00
71057;BME280;58380;48.312;9.246;2023-12-29T13:21:17;93496.84;;;6.55;100.00
71057;BME280;58380;48.312;9.246;2023-12-29T13:24:18;93496.06;;;6.54;100.00
71057;BME280;58380;48.312;9.246;2023-12-29T13:27:19;93502.91;;;6.55;100.00
71057;BME280;58380;48.312;9.246;2023-12-29T13:30:20;93488.13;;;6.49;100.00
71057;BME280;58380;48.312;9.246;2023-12-29T13:36:56;93513.06;;;6.52;100.00
71057;BME280;58380;48.312;9.246;2023-12-29T13:40:10;93511.25;;;6.52;100.00
71057;BME280;58380;48.312;9.246;2023-12-29T13:43:35;93510.28;;;6.58;100.00
71057;BME280;58380;48.312;9.246;2023-12-29T13:46:42;93509.50;;;6.58;100.00
71057;BME280;58380;48.312;9.246;2023-12-29T13:49:43;93500.94;;;6.62;100.00
71057;BME280;58380;48.312;9.246;2023-12-29T13:52:44;93505.03;;;6.58;100.00
71057;BME280;58380;48.312;9.246;2023-12-29T13:55:44;93485.31;;;6.56;100.00
71057;BME280;58380;48.312;9.246;2023-12-29T13:58:51;93514.44;;;6.71;100.00
71057;BME280;58380;48.312;9.246;2023-12-29T14:01:53;93523.13;;;6.72;100.00
71057;BME280;58380;48.312;9.246;2023-12-29T14:05:19;93518.97;;;6.76;100.00
71057;BME280;58380;48.312;9.246;2023-12-29T14:08:27;93525.91;;;6.82;100.00
71057;BME280;58380;48.312;9.246;2023-12-29T14:11:34;93522.25;;;6.83;100.00
71057;BME280;58380;48.312;9.246;2023-12-29T14:14:35;93520.03;;;6.75;100.00
71057;BME280;58380;48.312;9.246;2023-12-29T14:17:36;93525.50;;;6.73;100.00
71057;BME280;58380;48.312;9.246;2023-12-29T14:20:41;93526.53;;;6.72;100.00
71057;BME280;58380;48.312;9.246;2023-12-29T14:23:42;93520.72;;;6.70;100.00
71057;BME280;58380;48.312;9.246;2023-12-29T14:29:51;93527.63;;;6.76;100.00
71057;BME280;58380;48.312;9.246;2023-12-29T14:32:52;93536.94;;;6.84;100.00
71057;BME280;58380;48.312;9.246;2023-12-29T14:35:52;93516.63;;;6.74;100.00
71057;BME280;58380;48.312;9.246;2023-12-29T14:38:53;93530.69;;;6.85;96.01
71057;BME280;58380;48.312;9.246;2023-12-29T14:41:53;93511.66;;;6.78;96.60
71057;BME280;58380;48.312;9.246;2023-12-29T14:44:53;93512.25;;;6.80;98.19
71057;BME280;58380;48.312;9.246;2023-12-29T14:47:54;93504.28;;;6.75;98.43
71057;BME280;58380;48.312;9.246;2023-12-29T14:50:54;93513.72;;;6.76;95.01
71057;BME280;58380;48.312;9.246;2023-12-29T14:53:57;93517.78;;;6.83;91.97
71057;BME280;58380;48.312;9.246;2023-12-29T14:56:58;93517.03;;;7.17;85.89
71057;BME280;58380;48.312;9.246;2023-12-29T14:59:58;93515.75;;;7.19;84.93
71057;BME280;58380;48.312;9.246;2023-12-29T15:02:58;93513.06;;;7.14;88.00
71057;BME280;58380;48.312;9.246;2023-12-29T15:05:59;93500.31;;;7.06;86.24
71057;BME280;58380;48.312;9.246;2023-12-29T15:08:59;93507.25;;;7.12;86.85
71057;BME280;58380;48.312;9.246;2023-12-29T15:12:00;93501.94;;;7.07;87.14
71057;BME280;58380;48.312;9.246;2023-12-29T15:15:00;93514.72;;;7.20;86.50
71057;BME280;58380;48.312;9.246;2023-12-29T15:18:03;93516.28;;;7.21;86.76
71057;BME280;58380;48.312;9.246;2023-12-29T15:21:04;93517.25;;;7.15;88.44
71057;BME280;58380;48.312;9.246;2023-12-29T15:24:05;93517.66;;;7.07;88.64
71057;BME280;58380;48.312;9.246;2023-12-29T15:27:06;93520.28;;;7.07;89.83
71057;BME280;58380;48.312;9.246;2023-12-29T15:30:07;93520.53;;;7.05;90.53
71057;BME280;58380;48.312;9.246;2023-12-29T15:33:08;93497.06;;;6.82;90.50
71057;BME280;58380;48.312;9.246;2023-12-29T15:36:12;93511.44;;;6.96;91.81
71057;BME280;58380;48.312;9.246;2023-12-29T15:39:14;93519.66;;;7.00;93.16
71057;BME280;58380;48.312;9.246;2023-12-29T15:42:15;93520.13;;;6.97;93.81
71057;BME280;58380;48.312;9.246;2023-12-29T15:45:16;93507.47;;;6.77;94.00
71057;BME280;58380;48.312;9.246;2023-12-29T15:48:19;93522.97;;;6.95;91.73
71057;BME280;58380;48.312;9.246;2023-12-29T15:51:19;93506.59;;;6.88;92.97
71057;BME280;58380;48.312;9.246;2023-12-29T15:54:21;93516.31;;;6.87;93.26
71057;BME280;58380;48.312;9.246;2023-12-29T15:57:22;93523.03;;;6.83;95.38
71057;BME280;58380;48.312;9.246;2023-12-29T16:00:22;93506.66;;;6.76;95.71
71057;BME280;58380;48.312;9.246;2023-12-29T16:03:23;93517.53;;;6.68;97.23
71057;BME280;58380;48.312;9.246;2023-12-29T16:06:25;93506.16;;;6.62;98.05
71057;BME280;58380;48.312;9.246;2023-12-29T16:09:26;93502.94;;;6.43;98.89
71057;BME280;58380;48.312;9.246;2023-12-29T16:12:26;93518.34;;;6.40;100.00
71057;BME280;58380;48.312;9.246;2023-12-29T16:15:27;93489.00;;;6.26;100.00
71057;BME280;58380;48.312;9.246;2023-12-29T16:18:27;93513.06;;;6.23;100.00
71057;BME280;58380;48.312;9.246;2023-12-29T16:21:28;93511.59;;;6.15;100.00
71057;BME280;58380;48.312;9.246;2023-12-29T16:24:29;93501.16;;;6.03;100.00
71057;BME280;58380;48.312;9.246;2023-12-29T16:27:29;93516.88;;;6.03;100.00
71057;BME280;58380;48.312;9.246;2023-12-29T16:30:30;93487.16;;;5.86;100.00
71057;BME280;58380;48.312;9.246;2023-12-29T16:33:30;93495.34;;;5.90;100.00
71057;BME280;58380;48.312;9.246;2023-12-29T16:36:34;93511.22;;;5.95;100.00
71057;BME280;58380;48.312;9.246;2023-12-29T16:39:34;93492.75;;;5.78;100.00
71057;BME280;58380;48.312;9.246;2023-12-29T16:42:37;93498.34;;;5.70;100.00
71057;BME280;58380;48.312;9.246;2023-12-29T16:45:41;93488.91;;;5.69;100.00
71057;BME280;58380;48.312;9.246;2023-12-29T16:48:41;93494.13;;;5.69;100.00
71057;BME280;58380;48.312;9.246;2023-12-29T16:51:42;93491.63;;;5.74;100.00
71057;BME280;58380;48.312;9.246;2023-12-29T16:54:42;93484.69;;;5.68;100.00
71057;BME280;58380;48.312;9.246;2023-12-29T16:57:43;93507.09;;;5.87;100.00
71057;BME280;58380;48.312;9.246;2023-12-29T17:00:43;93508.34;;;5.84;100.00
71057;BME280;58380;48.312;9.246;2023-12-29T17:03:44;93496.97;;;5.79;100.00
71057;BME280;58380;48.312;9.246;2023-12-29T17:06:46;93508.47;;;5.90;100.00
71057;BME280;58380;48.312;9.246;2023-12-29T17:09:46;93467.03;;;5.75;100.00
71057;BME280;58380;48.312;9.246;2023-12-29T17:12:46;93511.06;;;6.01;100.00
71057;BME280;58380;48.312;9.246;2023-12-29T17:15:47;93501.31;;;5.97;100.00
71057;BME280;58380;48.312;9.246;2023-12-29T17:18:47;93489.56;;;5.88;100.00
71057;BME280;58380;48.312;9.246;2023-12-29T17:21:48;93492.16;;;5.88;100.00
71057;BME280;58380;48.312;9.246;2023-12-29T17:24:48;93487.41;;;5.84;100.00
71057;BME280;58380;48.312;9.246;2023-12-29T17:27:49;93500.72;;;5.95;100.00
71057;BME280;58380;48.312;9.246;2023-12-29T17:30:49;93501.16;;;5.92;100.00
71057;BME280;58380;48.312;9.246;2023-12-29T17:33:50;93497.63;;;5.86;100.00
71057;BME280;58380;48.312;9.246;2023-12-29T17:36:50;93487.06;;;5.81;100.00
71057;BME280;58380;48.312;9.246;2023-12-29T17:39:50;93488.47;;;5.72;100.00
71057;BME280;58380;48.312;9.246;2023-12-29T17:42:51;93498.56;;;5.80;100.00
71057;BME280;58380;48.312;9.246;2023-12-29T17:45:51;93490.03;;;5.73;100.00
71057;BME280;58380;48.312;9.246;2023-12-29T17:48:52;93497.22;;;5.77;100.00
71057;BME280;58380;48.312;9.246;2023-12-29T17:51:52;93494.03;;;5.63;100.00
71057;BME280;58380;48.312;9.246;2023-12-29T17:54:52;93488.22;;;5.61;100.00
71057;BME280;58380;48.312;9.246;2023-12-29T17:57:53;93500.19;;;5.57;100.00
71057;BME280;58380;48.312;9.246;2023-12-29T18:00:53;93489.38;;;5.54;100.00
71057;BME280;58380;48.312;9.246;2023-12-29T18:03:54;93498.25;;;5.53;100.00
71057;BME280;58380;48.312;9.246;2023-12-29T18:06:54;93500.66;;;5.43;100.00
71057;BME280;58380;48.312;9.246;2023-12-29T18:09:55;93483.59;;;5.28;100.00
71057;BME280;58380;48.312;9.246;2023-12-29T18:12:55;93488.72;;;5.35;100.00
71057;BME280;58380;48.312;9.246;2023-12-29T18:15:58;93484.06;;;5.25;100.00
71057;BME280;58380;48.312;9.246;2023-12-29T18:19:03;93499.06;;;5.18;100.00
71057;BME280;58380;48.312;9.246;2023-12-29T18:22:03;93483.72;;;5.10;100.00
71057;BME280;58380;48.312;9.246;2023-12-29T18:25:04;93499.66;;;5.20;100.00
71057;BME280;58380;48.312;9.246;2023-12-29T18:28:05;93493.50;;;5.14;100.00
71057;BME280;58380;48.312;9.246;2023-12-29T18:31:06;93492.16;;;5.12;100.00
71057;BME280;58380;48.312;9.246;2023-12-29T18:34:06;93491.44;;;5.05;100.00
71057;BME280;58380;48.312;9.246;2023-12-29T18:37:07;93494.97;;;4.98;100.00
71057;BME280;58380;48.312;9.246;2023-12-29T18:40:07;93488.25;;;5.03;100.00
71057;BME280;58380;48.312;9.246;2023-12-29T18:43:08;93494.72;;;4.88;100.00
71057;BME280;58380;48.312;9.246;2023-12-29T18:46:09;93502.00;;;4.86;100.00
71057;BME280;58380;48.312;9.246;2023-12-29T18:49:14;93511.41;;;4.75;100.00
71057;BME280;58380;48.312;9.246;2023-12-29T18:52:15;93498.56;;;4.62;100.00
71057;BME280;58380;48.312;9.246;2023-12-29T18:55:16;93512.75;;;4.66;100.00
71057;BME280;58380;48.312;9.246;2023-12-29T18:58:16;93510.13;;;4.66;100.00
71057;BME280;58380;48.312;9.246;2023-12-29T19:01:17;93503.53;;;4.64;100.00
71057;BME280;58380;48.312;9.246;2023-12-29T19:04:17;93498.97;;;4.59;100.00
71057;BME280;58380;48.312;9.246;2023-12-29T19:07:18;93515.25;;;4.61;100.00
71057;BME280;58380;48.312;9.246;2023-12-29T19:10:18;93520.47;;;4.61;100.00
71057;BME280;58380;48.312;9.246;2023-12-29T19:13:20;93487.41;;;4.55;100.00
71057;BME280;58380;48.312;9.246;2023-12-29T19:16:21;93517.59;;;4.93;100.00
71057;BME280;58380;48.312;9.246;2023-12-29T19:19:22;93484.41;;;5.05;100.00
71057;BME280;58380;48.312;9.246;2023-12-29T19:22:23;93512.16;;;5.30;100.00
71057;BME280;58380;48.312;9.246;2023-12-29T19:25:24;93486.56;;;5.32;95.01
71057;BME280;58380;48.312;9.246;2023-12-29T19:28:24;93517.13;;;5.78;93.09
71057;BME280;58380;48.312;9.246;2023-12-29T19:31:26;93510.84;;;6.03;88.15
71057;BME280;58380;48.312;9.246;2023-12-29T19:34:26;93512.84;;;6.24;85.90
71057;BME280;58380;48.312;9.246;2023-12-29T19:37:26;93494.75;;;6.11;86.00
71057;BME280;58380;48.312;9.246;2023-12-29T19:40:27;93503.44;;;6.00;87.73
71057;BME280;58380;48.312;9.246;2023-12-29T19:43:27;93490.59;;;5.87;87.07
71057;BME280;58380;48.312;9.246;2023-12-29T19:46:28;93512.56;;;5.97;86.28
71057;BME280;58380;48.312;9.246;2023-12-29T19:49:29;93500.72;;;5.95;85.64
71057;BME280;58380;48.312;9.246;2023-12-29T19:52:29;93503.44;;;6.00;85.41
71057;BME280;58380;48.312;9.246;2023-12-29T19:55:30;93499.94;;;5.82;86.06
71057;BME280;58380;48.312;9.246;2023-12-29T19:58:30;93518.38;;;5.88;86.18
71057;BME280;58380;48.312;9.246;2023-12-29T20:01:31;93498.00;;;5.66;87.45
71057;BME280;58380;48.312;9.246;2023-12-29T20:04:34;93518.06;;;5.60;87.93
71057;BME280;58380;48.312;9.246;2023-12-29T20:07:34;93510.09;;;5.67;87.20
71057;BME280;58380;48.312;9.246;2023-12-29T20:10:35;93524.19;;;5.66;87.68
71057;BME280;58380;48.312;9.246;2023-12-29T20:13:37;93534.66;;;5.66;88.02
71057;BME280;58380;48.312;9.246;2023-12-29T20:16:37;93524.78;;;5.45;89.21
71057;BME280;58380;48.312;9.246;2023-12-29T20:19:38;93534.81;;;5.59;88.34
71057;BME280;58380;48.312;9.246;2023-12-29T20:22:38;93548.13;;;5.58;88.70
71057;BME280;58380;48.312;9.246;2023-12-29T20:25:39;93542.31;;;5.56;88.93
71057;BME280;58380;48.312;9.246;2023-12-29T20:28:42;93536.75;;;5.40;90.11
71057;BME280;58380;48.312;9.246;2023-12-29T20:31:42;93541.19;;;5.40;90.26
71057;BME280;58380;48.312;9.246;2023-12-29T20:34:43;93523.75;;;5.34;90.44
71057;BME280;58380;48.312;9.246;2023-12-29T20:37:43;93516.72;;;5.23;91.81
71057;BME280;58380;48.312;9.246;2023-12-29T20:40:44;93538.44;;;5.23;91.79
71057;BME280;58380;48.312;9.246;2023-12-29T20:43:45;93529.44;;;5.19;92.63
71057;BME280;58380;48.312;9.246;2023-12-29T20:46:51;93527.41;;;5.33;91.69
71057;BME280;58380;48.312;9.246;2023-12-29T20:49:51;93517.50;;;5.23;92.67
71057;BME280;58380;48.312;9.246;2023-12-29T20:52:53;93525.13;;;5.25;91.44
71057;BME280;58380;48.312;9.246;2023-12-29T20:55:53;93517.28;;;5.25;91.05
71057;BME280;58380;48.312;9.246;2023-12-29T20:58:53;93518.41;;;5.17;91.58
71057;BME280;58380;48.312;9.246;2023-12-29T21:01:54;93525.69;;;5.15;92.64
71057;BME280;58380;48.312;9.246;2023-12-29T21:04:54;93496.88;;;4.91;92.61
71057;BME280;58380;48.312;9.246;2023-12-29T21:07:55;93513.84;;;5.01;93.36
71057;BME280;58380;48.312;9.246;2023-12-29T21:10:55;93490.16;;;4.84;93.97
71057;BME280;58380;48.312;9.246;2023-12-29T21:13:56;93509.16;;;4.91;93.76
71057;BME280;58380;48.312;9.246;2023-12-29T21:16:56;93510.19;;;4.90;94.50
71057;BME280;58380;48.312;9.246;2023-12-29T21:19:56;93515.53;;;4.83;95.57
71057;BME280;58380;48.312;9.246;2023-12-29T21:22:57;93508.03;;;4.87;96.22
71057;BME280;58380;48.312;9.246;2023-12-29T21:25:57;93490.63;;;4.81;97.08
71057;BME280;58380;48.312;9.246;2023-12-29T21:28:58;93485.47;;;4.74;97.21
71057;BME280;58380;48.312;9.246;2023-12-29T21:32:00;93487.53;;;4.84;97.36
71057;BME280;58380;48.312;9.246;2023-12-29T21:35:00;93479.00;;;5.59;94.45
71057;BME280;58380;48.312;9.246;2023-12-29T21:38:01;93495.56;;;5.88;93.47
71057;BME280;58380;48.312;9.246;2023-12-29T21:41:03;93481.81;;;5.81;93.72
71057;BME280;58380;48.312;9.246;2023-12-29T21:44:03;93497.78;;;5.79;94.47
71057;BME280;58380;48.312;9.246;2023-12-29T21:47:04;93501.94;;;6.04;94.36
71057;BME280;58380;48.312;9.246;2023-12-29T21:50:05;93508.78;;;5.93;95.38
71057;BME280;58380;48.312;9.246;2023-12-29T21:53:06;93502.75;;;5.81;95.93
71057;BME280;58380;48.312;9.246;2023-12-29T21:56:06;93515.06;;;5.80;96.94
71057;BME280;58380;48.312;9.246;2023-12-29T21:59:08;93527.94;;;5.94;97.20
71057;BME280;58380;48.312;9.246;2023-12-29T22:02:09;93531.13;;;5.96;98.04
71057;BME280;58380;48.312;9.246;2023-12-29T22:05:10;93515.19;;;5.86;98.08
71057;BME280;58380;48.312;9.246;2023-12-29T22:08:10;93518.53;;;5.57;98.82
71057;BME280;58380;48.312;9.246;2023-12-29T22:11:11;93536.50;;;5.54;99.74
71057;BME280;58380;48.312;9.246;2023-12-29T22:14:11;93536.41;;;5.37;100.00
71057;BME280;58380;48.312;9.246;2023-12-29T22:17:12;93524.09;;;5.14;100.00
71057;BME280;58380;48.312;9.246;2023-12-29T22:20:12;93517.47;;;5.11;100.00
71057;BME280;58380;48.312;9.246;2023-12-29T22:23:12;93521.13;;;4.98;100.00
71057;BME280;58380;48.312;9.246;2023-12-29T22:26:14;93512.94;;;4.95;100.00
71057;BME280;58380;48.312;9.246;2023-12-29T22:29:15;93514.97;;;4.93;100.00
